Argyle, Illinois
Current Conditions -  °F | °C
As of 6:54 PM on Friday 24 Oct 2014 (Local Time) from KRFD Reporting Station
Broken Clouds Broken Clouds  
Wind Chill: 57°   Ceiling: 25000
Heat Index: 57°   Visibility: 10mi
Dew Point: 47°   Wind: 8mph
Humidity: 69%   Direction: 180°S
Pressure: 29.95"   Gusts: NA
Location:  42.3911°N, 88.9094°W
Report Text: KRFD 242354Z 18007KT 10SM SCT085 BKN250 14/08 A2995 RMK AO2 SLP143 T01390083 10178 20122 55007
Loading
Personal Weather Stations






























Interactive Weather Map
Tropical Storm Tracking
New forecast layout! Learn more

10-Day Weather Forecast

Advertisements
Track Severe Weather on mobile